createdAt,value
2018-06-18T00:00:09.422Z,24.87
2018-06-18T00:01:09.390Z,24.93
2018-06-18T00:02:09.402Z,24.84
2018-06-18T00:03:09.427Z,24.87
2018-06-18T00:04:09.471Z,24.87
2018-06-18T00:05:09.467Z,24.88
2018-06-18T00:06:09.481Z,24.93
2018-06-18T00:07:09.512Z,24.98
2018-06-18T00:08:09.527Z,24.98
2018-06-18T00:09:09.545Z,24.96
2018-06-18T00:10:09.563Z,24.84
2018-06-18T00:11:09.671Z,24.93
2018-06-18T00:12:09.658Z,24.95
2018-06-18T00:13:09.627Z,25.02
2018-06-18T00:14:09.647Z,24.99
2018-06-18T00:15:09.663Z,25.00
2018-06-18T00:16:09.686Z,24.95
2018-06-18T00:17:09.752Z,24.91
2018-06-18T00:18:09.773Z,25.08
2018-06-18T00:19:09.741Z,25.06
2018-06-18T00:20:09.762Z,25.05
2018-06-18T00:21:09.785Z,25.15
2018-06-18T00:22:09.799Z,25.05
2018-06-18T00:23:09.870Z,25.02
2018-06-18T00:24:09.846Z,25.10
2018-06-18T00:25:09.863Z,24.99
2018-06-18T00:26:09.886Z,24.96
2018-06-18T00:27:09.900Z,25.05
2018-06-18T00:28:09.924Z,24.99
2018-06-18T00:29:09.944Z,24.95
2018-06-18T00:30:10.032Z,24.93
2018-06-18T00:31:09.977Z,24.95
2018-06-18T00:32:09.999Z,24.95
2018-06-18T00:33:10.021Z,24.93
2018-06-18T00:34:10.043Z,25.00
2018-06-18T00:35:10.109Z,24.99
2018-06-18T00:36:10.112Z,24.96
2018-06-18T00:37:10.101Z,24.93
2018-06-18T00:38:10.124Z,24.98
2018-06-18T00:39:10.140Z,25.05
2018-06-18T00:40:10.164Z,25.05
2018-06-18T00:41:10.186Z,25.06
2018-06-18T00:42:10.295Z,24.98
2018-06-18T00:43:10.232Z,25.00
2018-06-18T00:44:10.239Z,24.99
2018-06-18T00:45:10.275Z,24.99
2018-06-18T00:46:10.280Z,24.80
2018-06-18T00:47:10.304Z,24.85
2018-06-18T00:48:10.351Z,24.85
2018-06-18T00:49:10.338Z,24.84
2018-06-18T00:50:10.362Z,24.76
2018-06-18T00:51:10.393Z,24.76
2018-06-18T00:52:10.407Z,24.69
2018-06-18T00:53:10.424Z,24.85
2018-06-18T00:54:10.447Z,24.85
2018-06-18T00:55:10.462Z,24.81
2018-06-18T00:56:10.481Z,24.91
2018-06-18T00:57:10.502Z,24.83
2018-06-18T00:58:10.520Z,24.91
2018-06-18T00:59:10.536Z,24.87
2018-06-18T01:00:10.613Z,24.84
2018-06-18T01:01:10.592Z,24.85
2018-06-18T01:02:10.598Z,24.78
2018-06-18T01:03:10.621Z,24.68
2018-06-18T01:04:10.642Z,24.65
2018-06-18T01:05:10.664Z,24.57
2018-06-18T01:06:10.733Z,24.77
2018-06-18T01:07:10.710Z,24.84
2018-06-18T01:08:10.720Z,24.83
2018-06-18T01:09:10.741Z,24.81
2018-06-18T01:10:10.764Z,24.87
2018-06-18T01:11:10.783Z,24.83
2018-06-18T01:12:10.847Z,24.71
2018-06-18T01:13:10.821Z,24.73
2018-06-18T01:14:10.844Z,24.84
2018-06-18T01:15:10.867Z,24.85
2018-06-18T01:16:10.880Z,24.83
2018-06-18T01:17:10.900Z,24.83
2018-06-18T01:18:10.968Z,24.85
2018-06-18T01:19:10.935Z,24.93
2018-06-18T01:20:10.959Z,24.81
2018-06-18T01:21:10.980Z,24.84
2018-06-18T01:22:10.995Z,24.95
2018-06-18T01:23:11.024Z,24.91
2018-06-18T01:24:11.043Z,24.91
2018-06-18T01:25:11.061Z,25.03
2018-06-18T01:26:11.123Z,24.91
2018-06-18T01:27:11.095Z,24.98
2018-06-18T01:28:11.113Z,25.06
2018-06-18T01:29:11.137Z,25.10
2018-06-18T01:30:11.209Z,25.05
2018-06-18T01:31:11.179Z,25.08
2018-06-18T01:32:11.201Z,25.08
2018-06-18T01:33:11.214Z,25.06
2018-06-18T01:34:11.233Z,25.13
2018-06-18T01:35:11.262Z,25.10
2018-06-18T01:36:11.330Z,25.06
2018-06-18T01:37:11.296Z,25.05
2018-06-18T01:38:11.315Z,25.09
2018-06-18T01:39:11.341Z,25.02
2018-06-18T01:40:11.357Z,25.00
2018-06-18T01:41:11.374Z,24.87
2018-06-18T01:42:11.409Z,24.83
2018-06-18T01:43:11.412Z,24.78
2018-06-18T01:44:11.439Z,24.83
2018-06-18T01:45:11.460Z,24.81
2018-06-18T01:46:11.482Z,24.98
2018-06-18T01:47:11.499Z,24.91
2018-06-18T01:48:11.521Z,24.96
2018-06-18T01:49:11.538Z,24.95
2018-06-18T01:50:11.556Z,24.98
2018-06-18T01:51:11.578Z,24.87
2018-06-18T01:52:11.599Z,24.87
2018-06-18T01:53:11.617Z,24.83
2018-06-18T01:54:11.641Z,24.85
2018-06-18T01:55:11.659Z,24.78
2018-06-18T01:56:11.681Z,24.81
2018-06-18T01:57:11.702Z,24.73
2018-06-18T01:58:11.718Z,24.71
2018-06-18T01:59:11.740Z,24.69
2018-06-18T02:00:11.759Z,24.83
2018-06-18T02:01:11.780Z,24.71
2018-06-18T02:02:11.801Z,24.78
2018-06-18T02:03:11.820Z,24.84
2018-06-18T02:04:11.834Z,24.83
2018-06-18T02:05:11.859Z,24.85
2018-06-18T02:06:11.925Z,24.85
2018-06-18T02:07:11.897Z,24.87
2018-06-18T02:08:11.917Z,24.87
2018-06-18T02:09:11.998Z,24.93
2018-06-18T02:10:11.958Z,24.93
2018-06-18T02:11:11.977Z,24.96
2018-06-18T02:12:12.045Z,24.95
2018-06-18T02:13:12.013Z,24.98
2018-06-18T02:14:12.038Z,24.90
2018-06-18T02:15:12.056Z,24.96
2018-06-18T02:16:12.127Z,24.98
2018-06-18T02:17:12.094Z,25.00
2018-06-18T02:18:12.166Z,24.87
2018-06-18T02:19:12.141Z,24.84
2018-06-18T02:20:12.157Z,24.85
2018-06-18T02:21:12.175Z,24.78
2018-06-18T02:22:12.194Z,24.76
2018-06-18T02:23:12.217Z,24.68
2018-06-18T02:24:12.286Z,24.60
2018-06-18T02:25:12.257Z,24.55
2018-06-18T02:26:12.279Z,24.64
2018-06-18T02:27:12.292Z,24.60
2018-06-18T02:28:12.318Z,24.69
2018-06-18T02:29:12.333Z,24.81
2018-06-18T02:30:12.404Z,24.78
2018-06-18T02:31:12.372Z,24.85
2018-06-18T02:32:12.399Z,24.87
2018-06-18T02:33:12.415Z,24.91
2018-06-18T02:34:12.433Z,24.91
2018-06-18T02:35:12.456Z,24.90
2018-06-18T02:36:12.528Z,24.99
2018-06-18T02:37:12.506Z,24.83
2018-06-18T02:38:12.517Z,24.85
2018-06-18T02:39:12.540Z,24.93
2018-06-18T02:40:12.571Z,24.87
2018-06-18T02:41:12.575Z,24.83
2018-06-18T02:42:12.650Z,24.84
2018-06-18T02:43:12.616Z,24.81
2018-06-18T02:44:12.711Z,24.80
2018-06-18T02:45:12.653Z,24.71
2018-06-18T02:46:12.691Z,24.73
2018-06-18T02:47:12.696Z,24.71
2018-06-18T02:48:12.765Z,24.73
2018-06-18T02:49:12.736Z,24.73
2018-06-18T02:50:12.751Z,24.73
2018-06-18T02:51:12.773Z,24.76
2018-06-18T02:52:12.837Z,24.84
2018-06-18T02:53:12.818Z,24.93
2018-06-18T02:54:12.834Z,24.96
2018-06-18T02:55:12.855Z,25.06
2018-06-18T02:56:12.875Z,25.08
2018-06-18T02:57:12.892Z,25.10
2018-06-18T02:58:12.956Z,24.90
2018-06-18T02:59:12.934Z,24.91
2018-06-18T03:00:12.957Z,24.96
2018-06-18T03:01:12.969Z,24.95
2018-06-18T03:02:12.992Z,24.99
2018-06-18T03:03:13.018Z,25.08
2018-06-18T03:04:13.033Z,25.08
2018-06-18T03:05:13.053Z,25.03
2018-06-18T03:06:13.172Z,25.02
2018-06-18T03:07:13.092Z,25.02
2018-06-18T03:08:13.116Z,24.96
2018-06-18T03:09:13.136Z,24.91
2018-06-18T03:10:13.157Z,24.84
2018-06-18T03:11:13.177Z,24.85
2018-06-18T03:12:13.194Z,24.84
2018-06-18T03:13:13.216Z,24.88
2018-06-18T03:14:13.238Z,24.88
2018-06-18T03:15:13.257Z,24.71
2018-06-18T03:16:13.275Z,24.87
2018-06-18T03:17:13.365Z,24.77
2018-06-18T03:18:13.364Z,24.84
2018-06-18T03:19:13.337Z,24.98
2018-06-18T03:20:13.352Z,24.83
2018-06-18T03:21:13.375Z,24.68
2018-06-18T03:22:13.492Z,24.81
2018-06-18T03:23:13.444Z,24.76
2018-06-18T03:24:13.482Z,24.69
2018-06-18T03:25:13.454Z,24.77
2018-06-18T03:26:13.472Z,24.73
2018-06-18T03:27:13.496Z,24.76
2018-06-18T03:28:13.510Z,24.78
2018-06-18T03:29:13.606Z,24.76
2018-06-18T03:30:13.608Z,24.73
2018-06-18T03:31:13.574Z,24.69
2018-06-18T03:32:13.595Z,24.65
2018-06-18T03:33:13.613Z,24.61
2018-06-18T03:34:13.634Z,24.55
2018-06-18T03:35:13.655Z,24.57
2018-06-18T03:36:13.721Z,24.68
2018-06-18T03:37:13.707Z,24.68
2018-06-18T03:38:13.714Z,24.62
2018-06-18T03:39:13.731Z,24.61
2018-06-18T03:40:13.755Z,24.58
2018-06-18T03:41:13.767Z,24.55
2018-06-18T03:42:13.872Z,24.50
2018-06-18T03:43:13.813Z,24.57
2018-06-18T03:44:13.831Z,24.58
2018-06-18T03:45:13.849Z,24.53
2018-06-18T03:46:13.872Z,24.55
2018-06-18T03:47:13.923Z,24.55
2018-06-18T03:48:14.038Z,24.53
2018-06-18T03:49:13.928Z,24.50
2018-06-18T03:50:13.950Z,24.53
2018-06-18T03:51:13.968Z,24.52
2018-06-18T03:52:13.991Z,24.47
2018-06-18T03:53:14.017Z,24.42
2018-06-18T03:54:14.051Z,24.46
2018-06-18T03:55:14.048Z,24.39
2018-06-18T03:56:14.071Z,24.49
2018-06-18T03:57:14.093Z,24.52
2018-06-18T03:58:14.106Z,24.49
2018-06-18T03:59:14.135Z,24.52
2018-06-18T04:00:14.201Z,24.49
2018-06-18T04:01:14.165Z,24.55
2018-06-18T04:02:14.190Z,24.52
2018-06-18T04:03:14.206Z,24.55
2018-06-18T04:04:14.223Z,24.60
2018-06-18T04:05:14.261Z,24.61
2018-06-18T04:06:14.319Z,24.58
2018-06-18T04:07:14.289Z,24.69
2018-06-18T04:08:14.309Z,24.65
2018-06-18T04:09:14.325Z,24.58
2018-06-18T04:10:14.350Z,24.68
2018-06-18T04:11:14.370Z,24.69
2018-06-18T04:12:14.455Z,24.76
2018-06-18T04:13:14.453Z,24.85
2018-06-18T04:14:14.425Z,24.83
2018-06-18T04:15:14.448Z,24.80
2018-06-18T04:16:14.467Z,24.71
2018-06-18T04:17:14.490Z,24.62
2018-06-18T04:18:14.554Z,24.61
2018-06-18T04:19:14.527Z,24.60
2018-06-18T04:20:14.550Z,24.69
2018-06-18T04:21:14.562Z,24.77
2018-06-18T04:22:14.588Z,24.84
2018-06-18T04:23:14.603Z,24.83
2018-06-18T04:24:14.677Z,24.81
2018-06-18T04:25:14.648Z,24.80
2018-06-18T04:26:14.661Z,24.67
2018-06-18T04:27:14.685Z,24.58
2018-06-18T04:28:14.706Z,24.64
2018-06-18T04:29:14.726Z,24.57
2018-06-18T04:30:14.794Z,24.53
2018-06-18T04:31:14.771Z,24.61
2018-06-18T04:32:14.867Z,24.64
2018-06-18T04:33:14.804Z,24.60
2018-06-18T04:34:14.827Z,24.57
2018-06-18T04:35:14.843Z,24.60
2018-06-18T04:36:14.918Z,24.55
2018-06-18T04:37:14.884Z,24.55
2018-06-18T04:38:14.907Z,24.55
2018-06-18T04:39:14.922Z,24.52
2018-06-18T04:40:14.945Z,24.45
2018-06-18T04:41:14.966Z,24.58
2018-06-18T04:42:15.032Z,24.55
2018-06-18T04:43:15.008Z,24.57
2018-06-18T04:44:15.025Z,24.58
2018-06-18T04:45:15.042Z,24.67
2018-06-18T04:46:15.063Z,24.68
2018-06-18T04:47:15.082Z,24.69
2018-06-18T04:48:15.153Z,24.78
2018-06-18T04:49:15.126Z,24.78
2018-06-18T04:50:15.143Z,24.78
2018-06-18T04:51:15.163Z,24.78
2018-06-18T04:52:15.174Z,24.80
2018-06-18T04:53:15.198Z,24.76
2018-06-18T04:54:15.274Z,24.58
2018-06-18T04:55:15.238Z,24.64
2018-06-18T04:56:15.262Z,24.57
2018-06-18T04:57:15.279Z,24.55
2018-06-18T04:58:15.297Z,24.53
2018-06-18T04:59:15.317Z,24.47
2018-06-18T05:00:15.387Z,24.49
2018-06-18T05:01:15.361Z,24.52
2018-06-18T05:02:15.376Z,24.58
2018-06-18T05:03:15.426Z,24.52
2018-06-18T05:04:15.414Z,24.50
2018-06-18T05:05:15.441Z,24.58
2018-06-18T05:06:15.503Z,24.61
2018-06-18T05:07:15.476Z,24.61
2018-06-18T05:08:15.498Z,24.60
2018-06-18T05:09:15.530Z,24.64
2018-06-18T05:10:15.539Z,24.68
2018-06-18T05:11:15.555Z,24.71
2018-06-18T05:12:15.632Z,24.58
2018-06-18T05:13:15.593Z,24.60
2018-06-18T05:14:15.617Z,24.69
2018-06-18T05:15:15.660Z,24.62
2018-06-18T05:16:15.657Z,24.60
2018-06-18T05:17:15.673Z,24.58
2018-06-18T05:18:15.744Z,24.53
2018-06-18T05:19:15.708Z,24.46
2018-06-18T05:20:15.748Z,24.55
2018-06-18T05:21:15.753Z,24.60
2018-06-18T05:22:15.778Z,24.60
2018-06-18T05:23:15.791Z,24.58
2018-06-18T05:24:15.867Z,24.58
2018-06-18T05:25:15.834Z,24.62
2018-06-18T05:26:15.856Z,24.58
2018-06-18T05:27:15.878Z,24.61
2018-06-18T05:28:15.895Z,24.61
2018-06-18T05:29:15.908Z,24.57
2018-06-18T05:30:15.981Z,24.53
2018-06-18T05:31:15.947Z,24.55
2018-06-18T05:32:15.974Z,24.46
2018-06-18T05:33:15.992Z,24.55
2018-06-18T05:34:16.073Z,24.60
2018-06-18T05:35:16.040Z,24.52
2018-06-18T05:36:16.106Z,24.53
2018-06-18T05:37:16.069Z,24.50
2018-06-18T05:38:16.087Z,24.45
2018-06-18T05:39:16.108Z,24.46
2018-06-18T05:40:16.132Z,24.43
2018-06-18T05:41:16.146Z,24.42
2018-06-18T05:42:16.222Z,24.46
2018-06-18T05:43:16.188Z,24.49
2018-06-18T05:44:16.211Z,24.46
2018-06-18T05:45:16.228Z,24.47
2018-06-18T05:46:16.325Z,24.49
2018-06-18T05:47:16.270Z,24.50
2018-06-18T05:48:16.340Z,24.60
2018-06-18T05:49:16.311Z,24.58
2018-06-18T05:50:16.326Z,24.76
2018-06-18T05:51:16.342Z,24.78
2018-06-18T05:52:16.371Z,24.73
2018-06-18T05:53:16.388Z,24.78
2018-06-18T05:54:16.454Z,24.81
2018-06-18T05:55:16.424Z,24.71
2018-06-18T05:56:16.441Z,24.69
2018-06-18T05:57:16.466Z,24.83
2018-06-18T05:58:16.488Z,24.84
2018-06-18T05:59:16.506Z,24.81
2018-06-18T06:00:16.580Z,24.95
2018-06-18T06:01:16.550Z,25.03
2018-06-18T06:02:16.567Z,25.14
2018-06-18T06:03:16.585Z,25.08
2018-06-18T06:04:16.604Z,25.09
2018-06-18T06:05:16.626Z,25.15
2018-06-18T06:06:16.696Z,25.10
2018-06-18T06:07:16.663Z,25.15
2018-06-18T06:08:16.688Z,25.13
2018-06-18T06:09:16.701Z,25.15
2018-06-18T06:10:16.723Z,25.17
2018-06-18T06:11:16.739Z,25.18
2018-06-18T06:12:16.810Z,25.15
2018-06-18T06:13:16.782Z,25.10
2018-06-18T06:14:16.801Z,25.05
2018-06-18T06:15:16.820Z,25.10
2018-06-18T06:16:16.837Z,25.08
2018-06-18T06:17:16.926Z,25.18
2018-06-18T06:18:16.931Z,25.21
2018-06-18T06:19:16.900Z,25.32
2018-06-18T06:20:16.922Z,25.30
2018-06-18T06:21:16.942Z,25.33
2018-06-18T06:22:16.963Z,25.30
2018-06-18T06:23:16.984Z,25.32
2018-06-18T06:24:17.054Z,25.38
2018-06-18T06:25:17.018Z,25.47
2018-06-18T06:26:17.038Z,25.52
2018-06-18T06:27:17.062Z,25.51
2018-06-18T06:28:17.084Z,25.57
2018-06-18T06:29:17.105Z,25.65
2018-06-18T06:30:17.171Z,25.75
2018-06-18T06:31:17.143Z,25.76
2018-06-18T06:32:17.165Z,25.85
2018-06-18T06:33:17.181Z,25.90
2018-06-18T06:34:17.204Z,26.05
2018-06-18T06:35:17.224Z,26.05
2018-06-18T06:36:17.292Z,26.23
2018-06-18T06:37:17.257Z,26.37
2018-06-18T06:38:17.286Z,26.52
2018-06-18T06:39:17.304Z,26.62
2018-06-18T06:40:17.319Z,26.77
2018-06-18T06:41:17.343Z,26.80
2018-06-18T06:42:17.446Z,26.73
2018-06-18T06:43:17.383Z,26.85
2018-06-18T06:44:17.408Z,27.06
2018-06-18T06:45:17.424Z,27.17
2018-06-18T06:46:17.445Z,27.28
2018-06-18T06:47:17.462Z,27.40
2018-06-18T06:48:17.602Z,27.46
2018-06-18T06:49:17.510Z,27.55
2018-06-18T06:50:17.532Z,27.51
2018-06-18T06:51:17.548Z,27.50
2018-06-18T06:52:17.571Z,27.50
2018-06-18T06:53:17.599Z,27.63
2018-06-18T06:54:17.672Z,27.60
2018-06-18T06:55:17.629Z,27.81
2018-06-18T06:56:17.672Z,27.87
2018-06-18T06:57:17.683Z,27.88
2018-06-18T06:58:17.694Z,27.94
2018-06-18T06:59:17.718Z,28.03
2018-06-18T07:00:17.794Z,28.07
2018-06-18T07:01:17.799Z,28.14
2018-06-18T07:02:17.787Z,28.02
2018-06-18T07:03:17.798Z,28.29
2018-06-18T07:04:17.819Z,28.49
2018-06-18T07:05:17.848Z,28.39
2018-06-18T07:06:17.938Z,28.31
2018-06-18T07:07:17.883Z,28.41
2018-06-18T07:08:17.910Z,28.37
2018-06-18T07:09:17.932Z,28.39
2018-06-18T07:10:17.958Z,28.44
2018-06-18T07:11:17.971Z,28.64
2018-06-18T07:12:18.051Z,28.78
2018-06-18T07:13:18.095Z,28.83
2018-06-18T07:14:18.044Z,28.86
2018-06-18T07:15:18.068Z,28.88
2018-06-18T07:16:18.088Z,28.92
2018-06-18T07:18:18.183Z,29.05
2018-06-18T07:19:18.151Z,29.18
2018-06-18T07:20:18.168Z,29.16
2018-06-18T07:21:18.190Z,29.33
2018-06-18T07:22:18.219Z,29.39
2018-06-18T07:23:18.233Z,29.33
2018-06-18T07:24:18.316Z,29.39
2018-06-18T07:25:18.281Z,29.48
2018-06-18T07:26:18.379Z,29.48
2018-06-18T07:27:18.328Z,29.42
2018-06-18T07:28:18.354Z,29.37
2018-06-18T07:29:18.371Z,29.42
2018-06-18T07:30:18.580Z,29.46
2018-06-18T07:31:18.413Z,29.53
2018-06-18T07:32:18.436Z,29.43
2018-06-18T07:33:18.461Z,29.53
2018-06-18T07:34:18.478Z,29.64
2018-06-18T07:35:18.501Z,29.71
2018-06-18T07:36:18.582Z,29.53
2018-06-18T07:37:18.547Z,29.46
2018-06-18T07:38:18.568Z,29.36
2018-06-18T07:39:18.598Z,29.42
2018-06-18T07:40:18.621Z,29.61
2018-06-18T07:41:18.638Z,29.64
2018-06-18T07:42:18.714Z,29.51
2018-06-18T07:43:18.686Z,29.58
2018-06-18T07:44:18.706Z,29.67
2018-06-18T07:45:18.841Z,29.86
2018-06-18T07:46:18.790Z,29.76
2018-06-18T07:47:18.775Z,29.57
2018-06-18T07:48:18.851Z,29.60
2018-06-18T07:49:18.819Z,29.45
2018-06-18T07:50:18.846Z,29.28
2018-06-18T07:51:18.947Z,29.41
2018-06-18T07:52:18.899Z,29.57
2018-06-18T07:53:18.914Z,29.58
2018-06-18T07:54:18.988Z,29.76
2018-06-18T07:55:18.958Z,29.63
2018-06-18T07:56:18.983Z,29.74
2018-06-18T07:57:19.000Z,30.01
2018-06-18T07:58:19.026Z,30.07
2018-06-18T07:59:19.049Z,29.92
2018-06-18T08:00:19.117Z,30.01
2018-06-18T08:01:19.101Z,30.08
2018-06-18T08:02:19.117Z,30.17
2018-06-18T08:03:19.137Z,30.22
2018-06-18T08:04:19.162Z,30.19
2018-06-18T08:05:19.181Z,30.27
2018-06-18T08:06:19.260Z,30.22
2018-06-18T08:07:19.226Z,30.26
2018-06-18T08:08:19.257Z,30.27
2018-06-18T08:09:19.278Z,29.79
2018-06-18T08:10:19.382Z,29.90
2018-06-18T08:11:19.329Z,29.87
2018-06-18T08:12:19.397Z,30.00
2018-06-18T08:13:19.368Z,30.34
2018-06-18T08:14:19.394Z,30.49
2018-06-18T08:15:19.417Z,30.42
2018-06-18T08:16:19.455Z,30.05
2018-06-18T08:17:19.466Z,29.98
2018-06-18T08:18:19.543Z,30.20
2018-06-18T08:19:19.508Z,30.15
2018-06-18T08:20:19.526Z,30.27
2018-06-18T08:21:19.550Z,30.38
2018-06-18T08:22:19.584Z,30.27
2018-06-18T08:23:19.598Z,30.43
2018-06-18T08:24:19.673Z,30.42
2018-06-18T08:25:19.651Z,30.55
2018-06-18T08:26:19.668Z,30.43
2018-06-18T08:27:19.696Z,30.45
2018-06-18T08:28:19.712Z,30.49
2018-06-18T08:29:19.741Z,30.23
2018-06-18T08:30:19.810Z,30.45
2018-06-18T08:31:19.787Z,30.49
2018-06-18T08:32:19.856Z,30.61
2018-06-18T08:33:19.833Z,30.92
2018-06-18T08:34:19.858Z,30.92
2018-06-18T08:35:19.881Z,30.88
2018-06-18T08:36:19.954Z,30.80
2018-06-18T08:37:19.926Z,31.07
2018-06-18T08:38:19.944Z,31.31
2018-06-18T08:39:19.969Z,31.38
2018-06-18T08:40:19.995Z,31.36
2018-06-18T08:41:20.088Z,31.48
2018-06-18T08:42:20.097Z,31.48
2018-06-18T08:44:20.093Z,31.61
2018-06-18T08:45:20.115Z,31.50
2018-06-18T08:46:20.146Z,31.89
2018-06-18T08:47:20.220Z,31.92
2018-06-18T08:48:20.233Z,32.04
2018-06-18T08:49:20.206Z,32.30
2018-06-18T08:50:20.237Z,32.56
2018-06-18T08:51:20.256Z,32.26
2018-06-18T08:52:20.283Z,32.08
2018-06-18T08:53:20.338Z,32.57
2018-06-18T08:54:20.378Z,32.66
2018-06-18T08:55:20.353Z,32.97
2018-06-18T08:56:20.379Z,32.96
2018-06-18T08:57:20.402Z,33.09
2018-06-18T08:58:20.432Z,33.28
2018-06-18T08:59:20.452Z,33.66
2018-06-18T09:00:20.533Z,33.60
2018-06-18T09:01:20.508Z,33.60
2018-06-18T09:02:20.527Z,32.74
2018-06-18T09:03:20.553Z,32.78
2018-06-18T09:04:20.575Z,32.50
2018-06-18T09:05:20.605Z,32.47
2018-06-18T09:06:20.711Z,32.00
2018-06-18T09:07:20.647Z,31.68
2018-06-18T09:08:20.671Z,31.53
2018-06-18T09:09:20.698Z,31.46
2018-06-18T09:10:20.732Z,31.14
2018-06-18T09:11:20.753Z,31.07
2018-06-18T09:12:20.845Z,31.19
2018-06-18T09:13:20.796Z,31.04
2018-06-18T09:14:20.820Z,31.06
2018-06-18T09:15:20.849Z,30.82
2018-06-18T09:16:20.876Z,30.60
2018-06-18T09:17:20.898Z,30.98
2018-06-18T09:18:20.925Z,31.07
2018-06-18T09:19:20.949Z,31.34
2018-06-18T09:20:20.971Z,31.43
2018-06-18T09:21:20.993Z,31.44
2018-06-18T09:22:21.022Z,31.62
2018-06-18T09:23:21.041Z,31.58
2018-06-18T09:24:21.063Z,31.41
2018-06-18T09:25:21.087Z,31.19
2018-06-18T09:26:21.122Z,30.95
2018-06-18T09:27:21.142Z,31.16
2018-06-18T09:28:21.166Z,31.50
2018-06-18T09:29:21.185Z,31.41
2018-06-18T09:30:21.270Z,30.97
2018-06-18T09:31:21.240Z,30.62
2018-06-18T09:32:21.490Z,30.97
2018-06-18T09:33:21.300Z,31.31
2018-06-18T09:34:21.304Z,31.34
2018-06-18T09:35:21.342Z,31.39
2018-06-18T09:36:21.410Z,32.04
2018-06-18T09:37:21.387Z,32.52
2018-06-18T09:38:21.401Z,32.88
2018-06-18T09:39:21.428Z,32.88
2018-06-18T09:40:21.453Z,33.12
2018-06-18T09:41:21.478Z,33.19
2018-06-18T09:42:21.501Z,33.59
2018-06-18T09:43:21.521Z,33.69
2018-06-18T09:44:21.547Z,33.69
2018-06-18T09:45:21.571Z,33.66
2018-06-18T09:46:21.597Z,33.94
2018-06-18T09:47:21.624Z,33.86
2018-06-18T09:48:21.699Z,34.12
2018-06-18T09:49:21.673Z,33.56
2018-06-18T09:50:21.695Z,33.69
2018-06-18T09:51:21.726Z,34.12
2018-06-18T09:52:21.743Z,34.24
2018-06-18T09:53:21.777Z,34.21
2018-06-18T09:54:21.794Z,33.86
2018-06-18T09:55:21.827Z,33.66
2018-06-18T09:56:21.848Z,33.91
2018-06-18T09:57:21.875Z,34.21
2018-06-18T09:58:21.900Z,33.94
2018-06-18T09:59:21.920Z,34.08
2018-06-18T10:00:22.002Z,34.37
2018-06-18T10:01:21.977Z,34.44
2018-06-18T10:02:22.001Z,33.75
2018-06-18T10:03:22.022Z,33.29
2018-06-18T10:04:22.050Z,33.53
2018-06-18T10:05:22.081Z,33.44
2018-06-18T10:06:22.106Z,33.31
2018-06-18T10:07:22.274Z,33.41
2018-06-18T10:08:22.292Z,33.71
2018-06-18T10:09:22.183Z,34.25
2018-06-18T10:10:22.207Z,34.59
2018-06-18T10:11:22.234Z,34.62
2018-06-18T10:12:22.463Z,34.62
2018-06-18T10:14:22.340Z,35.34
2018-06-18T10:15:22.335Z,35.53
2018-06-18T10:16:22.360Z,35.25
2018-06-18T10:17:22.383Z,35.26
2018-06-18T10:18:22.409Z,35.31
2018-06-18T10:19:22.476Z,34.92
2018-06-18T10:20:22.463Z,33.91
2018-06-18T10:21:22.489Z,34.12
2018-06-18T10:22:22.720Z,34.13
2018-06-18T10:23:22.545Z,34.39
2018-06-18T10:24:22.695Z,34.61
2018-06-18T10:25:22.647Z,34.73
2018-06-18T10:26:22.621Z,35.19
2018-06-18T10:27:22.643Z,34.94
2018-06-18T10:28:22.871Z,34.82
2018-06-18T10:29:22.907Z,35.06
2018-06-18T10:30:22.780Z,35.25
2018-06-18T10:31:22.782Z,35.36
2018-06-18T10:32:22.774Z,35.58
2018-06-18T10:33:22.800Z,35.52
2018-06-18T10:34:22.833Z,35.62
2018-06-18T10:35:22.855Z,35.72
2018-06-18T10:36:22.884Z,35.44
2018-06-18T10:37:22.912Z,35.81
2018-06-18T10:38:22.938Z,36.15
2018-06-18T10:39:22.961Z,36.03
2018-06-18T10:40:22.987Z,35.72
2018-06-18T10:41:23.017Z,35.92
2018-06-18T10:42:23.095Z,36.16
2018-06-18T10:43:23.068Z,36.16
2018-06-18T10:44:23.144Z,36.31
2018-06-18T10:45:23.126Z,36.50
2018-06-18T10:46:23.145Z,36.53
2018-06-18T10:47:23.172Z,36.60
2018-06-18T10:48:23.204Z,36.64
2018-06-18T10:49:23.233Z,37.07
2018-06-18T10:50:23.325Z,36.95
2018-06-18T10:51:23.297Z,37.15
2018-06-18T10:52:23.312Z,37.37
2018-06-18T10:53:23.386Z,37.51
2018-06-18T10:54:23.367Z,37.44
2018-06-18T10:55:23.397Z,37.56
2018-06-18T10:56:23.468Z,37.32
2018-06-18T10:57:23.446Z,36.95
2018-06-18T10:58:23.471Z,36.78
2018-06-18T10:59:23.561Z,37.03
2018-06-18T11:00:23.530Z,37.20
2018-06-18T11:01:23.553Z,37.10
2018-06-18T11:02:23.591Z,37.46
2018-06-18T11:03:23.613Z,37.79
2018-06-18T11:04:23.641Z,37.36
2018-06-18T11:05:23.717Z,37.79
2018-06-18T11:06:23.699Z,37.72
2018-06-18T11:07:23.718Z,37.50
2018-06-18T11:08:23.746Z,37.63
2018-06-18T11:09:23.839Z,37.64
2018-06-18T11:10:23.804Z,37.55
2018-06-18T11:11:23.833Z,37.70
2018-06-18T11:12:23.857Z,37.56
2018-06-18T11:13:23.885Z,37.41
2018-06-18T11:14:23.914Z,37.27
2018-06-18T11:15:24.000Z,37.63
2018-06-18T11:16:24.098Z,37.57
2018-06-18T11:17:24.414Z,37.46
2018-06-18T11:18:24.025Z,37.79
2018-06-18T11:19:24.053Z,38.04
2018-06-18T11:20:24.088Z,38.41
2018-06-18T11:21:24.134Z,38.35
2018-06-18T11:22:24.145Z,38.72
2018-06-18T11:23:24.220Z,38.71
2018-06-18T11:24:24.208Z,38.56
2018-06-18T11:25:24.228Z,38.06
2018-06-18T11:26:24.318Z,37.81
2018-06-18T11:27:24.290Z,37.43
2018-06-18T11:28:24.351Z,37.39
2018-06-18T11:29:24.445Z,37.47
2018-06-18T11:30:24.364Z,37.63
2018-06-18T11:31:24.400Z,37.62
2018-06-18T11:32:24.477Z,37.63
2018-06-18T11:33:24.449Z,37.28
2018-06-18T11:34:24.481Z,37.69
2018-06-18T11:35:24.560Z,37.47
2018-06-18T11:36:24.532Z,37.64
2018-06-18T11:37:24.564Z,37.69
2018-06-18T11:38:24.591Z,38.00
2018-06-18T11:39:24.673Z,38.12
2018-06-18T11:40:24.709Z,38.22
2018-06-18T11:41:24.724Z,38.41
2018-06-18T11:42:24.704Z,38.54
2018-06-18T11:43:24.807Z,38.37
2018-06-18T11:44:24.760Z,38.34
2018-06-18T11:45:24.790Z,38.34
2018-06-18T11:46:24.833Z,38.32
2018-06-18T11:47:24.896Z,38.37
2018-06-18T11:48:24.873Z,38.13
2018-06-18T11:49:24.907Z,38.35
2018-06-18T11:50:24.930Z,38.71
2018-06-18T11:51:24.960Z,38.93
2018-06-18T11:52:24.986Z,39.21
2018-06-18T11:53:25.020Z,39.48
2018-06-18T11:54:25.045Z,39.51
2018-06-18T11:55:25.078Z,39.17
2018-06-18T11:56:25.107Z,38.74
2018-06-18T11:57:25.135Z,38.66
2018-06-18T11:58:25.224Z,38.87
2018-06-18T11:59:25.237Z,38.71
2018-06-18T12:00:25.216Z,38.79
2018-06-18T12:01:25.316Z,38.79
2018-06-18T12:02:25.274Z,38.23
2018-06-18T12:03:25.308Z,38.03
2018-06-18T12:04:25.338Z,38.18
2018-06-18T12:05:25.367Z,37.89
2018-06-18T12:06:25.389Z,38.19
2018-06-18T12:07:25.424Z,38.01
2018-06-18T12:08:25.454Z,37.98
2018-06-18T12:09:25.486Z,37.93
2018-06-18T12:10:25.511Z,38.32
2018-06-18T12:11:25.622Z,38.06
2018-06-18T12:12:25.567Z,38.32
2018-06-18T12:13:25.596Z,38.28
2018-06-18T12:14:25.626Z,38.68
2018-06-18T12:15:25.646Z,38.93
2018-06-18T12:16:25.678Z,39.01
2018-06-18T12:17:25.757Z,39.06
2018-06-18T12:18:25.741Z,39.14
2018-06-18T12:19:25.766Z,38.74
2018-06-18T12:20:25.792Z,39.13
2018-06-18T12:21:25.824Z,39.32
2018-06-18T12:22:25.858Z,39.25
2018-06-18T12:23:25.962Z,39.29
2018-06-18T12:24:25.912Z,39.16
2018-06-18T12:25:25.941Z,39.57
2018-06-18T12:26:25.967Z,39.35
2018-06-18T12:27:25.996Z,39.45
2018-06-18T12:28:26.030Z,39.45
2018-06-18T12:29:26.057Z,39.17
2018-06-18T12:30:26.081Z,39.22
2018-06-18T12:31:26.114Z,39.51
2018-06-18T12:32:26.146Z,39.63
2018-06-18T12:33:26.169Z,39.97
2018-06-18T12:34:26.199Z,40.18
2018-06-18T12:35:26.249Z,40.08
2018-06-18T12:36:26.261Z,40.22
2018-06-18T12:37:26.287Z,39.96
2018-06-18T12:39:26.345Z,39.89
2018-06-18T12:40:26.372Z,40.19
2018-06-18T12:41:26.458Z,39.67
2018-06-18T12:42:26.441Z,40.08
2018-06-18T12:44:26.489Z,40.10
2018-06-18T12:45:26.519Z,40.39
2018-06-18T12:46:26.554Z,40.60
2018-06-18T12:47:26.584Z,40.18
2018-06-18T12:48:26.608Z,40.23
2018-06-18T12:49:26.641Z,39.89
2018-06-18T12:50:26.669Z,40.08
2018-06-18T12:51:26.697Z,40.04
2018-06-18T12:52:26.727Z,40.19
2018-06-18T12:53:26.809Z,40.38
2018-06-18T12:54:26.794Z,40.50
2018-06-18T12:55:26.834Z,40.64
2018-06-18T12:56:26.847Z,40.41
2018-06-18T12:57:26.882Z,40.20